createdAt,value
2018-11-11T00:00:23.345Z,2.60
2018-11-11T00:02:54.689Z,3.05
2018-11-11T00:05:23.773Z,2.77
2018-11-11T00:07:52.833Z,2.40
2018-11-11T00:10:22.538Z,2.70
2018-11-11T00:12:51.922Z,2.42
2018-11-11T00:15:21.522Z,3.02
2018-11-11T00:17:51.273Z,2.60
2018-11-11T00:20:20.310Z,2.95
2018-11-11T00:22:49.385Z,2.70
2018-11-11T00:25:19.314Z,2.77
2018-11-11T00:27:48.833Z,2.70
2018-11-11T00:30:19.471Z,2.50
2018-11-11T00:32:49.378Z,2.10
2018-11-11T00:35:18.510Z,2.75
2018-11-11T00:37:47.573Z,2.50
2018-11-11T00:40:17.071Z,2.67
2018-11-11T00:42:46.645Z,3.00
2018-11-11T00:45:16.798Z,2.60
2018-11-11T00:47:46.379Z,2.83
2018-11-11T00:50:15.437Z,2.70
2018-11-11T00:52:45.519Z,2.70
2018-11-11T00:55:16.161Z,2.47
2018-11-11T00:57:46.266Z,2.23
2018-11-11T01:00:17.305Z,2.83
2018-11-11T01:02:46.754Z,2.62
2018-11-11T01:05:16.738Z,2.33
2018-11-11T01:07:45.792Z,2.55
2018-11-11T01:10:16.111Z,2.55
2018-11-11T01:12:46.373Z,2.65
2018-11-11T01:15:16.862Z,2.30
2018-11-11T01:17:45.928Z,2.30
2018-11-11T01:20:16.491Z,2.52
2018-11-11T01:22:46.173Z,2.62
2018-11-11T01:25:17.477Z,2.47
2018-11-11T01:27:46.555Z,2.67
2018-11-11T01:30:16.901Z,2.62
2018-11-11T01:32:46.714Z,2.70
2018-11-11T01:35:16.757Z,2.25
2018-11-11T01:37:46.218Z,2.40
2018-11-11T01:40:15.383Z,2.27
2018-11-11T01:42:45.828Z,2.35
2018-11-11T01:45:16.430Z,2.83
2018-11-11T01:47:46.262Z,2.53
2018-11-11T01:50:16.214Z,2.10
2018-11-11T01:52:46.076Z,2.22
2018-11-11T01:55:15.953Z,2.47
2018-11-11T01:57:45.025Z,2.22
2018-11-11T02:00:16.023Z,2.40
2018-11-11T02:02:45.875Z,1.98
2018-11-11T02:05:15.274Z,2.10
2018-11-11T02:07:45.364Z,2.45
2018-11-11T02:10:15.733Z,2.27
2018-11-11T02:12:46.349Z,2.20
2018-11-11T02:15:16.419Z,2.00
2018-11-11T02:17:45.467Z,2.20
2018-11-11T02:20:16.106Z,2.27
2018-11-11T02:22:45.957Z,2.17
2018-11-11T02:25:16.786Z,2.72
2018-11-11T02:27:46.425Z,2.45
2018-11-11T02:30:19.940Z,2.52
2018-11-11T02:32:49.992Z,2.50
2018-11-11T02:35:19.689Z,2.30
2018-11-11T02:37:48.774Z,2.27
2018-11-11T02:40:20.340Z,2.00
2018-11-11T02:44:13.848Z,2.40
2018-11-11T02:46:42.986Z,2.40
2018-11-11T02:49:12.728Z,2.17
2018-11-11T02:51:41.800Z,2.30
2018-11-11T02:54:11.638Z,2.25
2018-11-11T02:56:40.691Z,2.08
2018-11-11T02:59:09.924Z,2.08
2018-11-11T03:01:39.634Z,2.25
2018-11-11T03:04:08.784Z,2.20
2018-11-11T03:06:37.809Z,2.47
2018-11-11T03:09:10.918Z,2.27
2018-11-11T03:11:40.383Z,2.40
2018-11-11T03:14:10.546Z,1.95
2018-11-11T03:16:39.802Z,1.85
2018-11-11T03:19:09.073Z,2.27
2018-11-11T03:21:38.134Z,2.20
2018-11-11T03:24:08.151Z,2.10
2018-11-11T03:26:38.267Z,2.37
2018-11-11T03:29:07.351Z,1.80
2018-11-11T03:31:38.207Z,2.20
2018-11-11T03:34:08.140Z,2.17
2018-11-11T03:36:37.417Z,1.98
2018-11-11T03:39:08.981Z,2.02
2018-11-11T03:41:38.433Z,1.90
2018-11-11T03:44:08.264Z,2.37
2018-11-11T03:46:38.313Z,2.00
2018-11-11T03:49:07.522Z,2.10
2018-11-11T03:51:37.622Z,2.20
2018-11-11T03:54:07.718Z,1.90
2018-11-11T03:56:36.778Z,1.75
2018-11-11T03:59:06.850Z,2.02
2018-11-11T04:01:35.954Z,2.42
2018-11-11T04:04:05.690Z,2.20
2018-11-11T04:06:34.799Z,2.27
2018-11-11T04:09:05.962Z,1.57
2018-11-11T04:11:35.023Z,2.20
2018-11-11T04:14:05.828Z,1.80
2018-11-11T04:16:34.886Z,2.10
2018-11-11T04:19:05.194Z,2.20
2018-11-11T04:21:34.375Z,2.40
2018-11-11T04:24:04.389Z,1.92
2018-11-11T04:26:34.262Z,1.90
2018-11-11T04:29:03.354Z,2.10
2018-11-11T04:31:34.809Z,1.95
2018-11-11T04:34:06.407Z,1.82
2018-11-11T04:36:36.606Z,2.33
2018-11-11T04:39:08.065Z,1.90
2018-11-11T04:41:37.703Z,2.10
2018-11-11T04:44:07.885Z,2.22
2018-11-11T04:46:36.981Z,2.25
2018-11-11T04:49:06.983Z,1.98
2018-11-11T04:51:36.696Z,2.10
2018-11-11T04:54:07.522Z,2.00
2018-11-11T04:56:36.929Z,1.92
2018-11-11T04:59:06.378Z,1.70
2018-11-11T05:01:36.156Z,2.30
2018-11-11T05:04:05.204Z,2.15
2018-11-11T05:06:34.282Z,2.00
2018-11-11T05:09:03.593Z,1.70
2018-11-11T05:11:32.691Z,1.62
2018-11-11T05:14:02.767Z,2.20
2018-11-11T05:16:31.825Z,1.82
2018-11-11T05:19:00.882Z,1.72
2018-11-11T05:21:29.958Z,2.08
2018-11-11T05:23:59.091Z,1.67
2018-11-11T05:26:29.099Z,1.95
2018-11-11T05:28:58.166Z,1.90
2018-11-11T05:31:28.399Z,1.80
2018-11-11T05:33:58.362Z,1.70
2018-11-11T05:36:27.438Z,1.90
2018-11-11T05:38:57.391Z,1.77
2018-11-11T05:41:27.377Z,2.02
2018-11-11T05:43:56.540Z,1.92
2018-11-11T05:46:26.418Z,2.00
2018-11-11T08:06:19.945Z,3.52
2018-11-11T08:08:49.602Z,3.30
2018-11-11T08:11:30.035Z,3.27
2018-11-11T08:13:59.755Z,3.72
2018-11-11T08:16:28.820Z,3.30
2018-11-11T08:18:58.053Z,3.33
2018-11-11T08:21:27.242Z,3.10
2018-11-11T08:23:56.310Z,3.72
2018-11-11T08:26:26.183Z,3.12
2018-11-11T08:28:55.251Z,3.08
2018-11-11T08:31:24.770Z,3.40
2018-11-11T08:33:54.286Z,2.87
2018-11-11T08:36:23.347Z,2.70
2018-11-11T08:38:52.453Z,3.30
2018-11-11T08:41:22.412Z,2.98
2018-11-11T08:43:51.486Z,3.33
2018-11-11T08:46:20.586Z,3.00
2018-11-11T08:48:50.506Z,3.37
2018-11-11T08:51:20.575Z,3.05
2018-11-11T08:53:50.442Z,3.05
2018-11-11T08:56:19.557Z,3.45
2018-11-11T08:58:48.647Z,2.60
2018-11-11T09:01:17.742Z,3.40
2018-11-11T09:03:47.790Z,2.83
2018-11-11T09:06:17.766Z,2.37
2018-11-11T09:08:46.885Z,3.05
2018-11-11T09:11:15.974Z,2.60
2018-11-11T09:13:45.105Z,2.70
2018-11-11T09:16:14.267Z,2.83
2018-11-11T09:18:44.138Z,3.02
2018-11-11T09:21:14.209Z,2.87
2018-11-11T09:23:44.085Z,2.60
2018-11-11T09:26:13.514Z,3.12
2018-11-11T09:28:42.594Z,2.37
2018-11-11T09:31:12.409Z,2.50
2018-11-11T09:33:41.975Z,2.15
2018-11-11T09:36:11.117Z,2.50
2018-11-11T09:38:40.211Z,2.37
2018-11-11T09:41:09.995Z,3.10
2018-11-11T09:43:39.913Z,2.40
2018-11-11T09:46:09.014Z,2.58
2018-11-11T09:48:39.263Z,2.85
2018-11-11T09:51:08.351Z,2.30
2018-11-11T09:53:37.430Z,2.65
2018-11-11T09:56:07.462Z,3.20
2018-11-11T09:58:36.632Z,2.60
2018-11-11T10:01:05.709Z,3.37
2018-11-11T10:03:41.684Z,2.67
2018-11-11T10:06:18.749Z,2.30
2018-11-11T10:09:00.502Z,2.47
2018-11-11T10:11:37.898Z,2.58
2018-11-11T10:14:42.639Z,2.47
2018-11-11T10:17:30.713Z,1.98
2018-11-11T10:21:10.066Z,2.25
2018-11-11T10:23:43.885Z,2.90
2018-11-11T10:26:20.513Z,3.05
2018-11-11T10:28:58.667Z,3.37
2018-11-11T10:31:37.180Z,3.25
2018-11-11T10:34:11.890Z,3.72
2018-11-11T10:36:47.222Z,3.27
2018-11-11T10:39:21.593Z,3.12
2018-11-11T10:42:00.528Z,2.83
2018-11-11T10:44:35.658Z,3.05
2018-11-11T10:47:08.569Z,3.33
2018-11-11T10:49:58.018Z,3.30
2018-11-11T10:52:28.626Z,2.52
2018-11-11T10:54:59.234Z,3.67
2018-11-11T10:57:29.263Z,3.12
2018-11-11T10:59:59.175Z,3.25
2018-11-11T11:02:37.453Z,2.80
2018-11-11T11:05:09.502Z,4.05
2018-11-11T11:07:38.670Z,2.72
2018-11-11T11:10:08.241Z,3.15
2018-11-11T11:12:37.335Z,3.72
2018-11-11T11:15:08.498Z,3.70
2018-11-11T11:17:38.723Z,4.25
2018-11-11T11:20:09.002Z,3.30
2018-11-11T11:24:02.584Z,3.37
2018-11-11T11:26:32.252Z,3.98
2018-11-11T11:29:01.334Z,4.08
2018-11-11T11:31:31.473Z,3.20
2018-11-11T11:34:01.219Z,3.40
2018-11-11T11:36:30.283Z,3.30
2018-11-11T11:38:59.427Z,3.10
2018-11-11T11:41:30.079Z,3.22
2018-11-11T11:43:59.245Z,3.40
2018-11-11T11:46:29.457Z,3.62
2018-11-11T11:48:59.947Z,3.77
2018-11-11T11:51:29.295Z,4.00
2018-11-11T11:54:00.083Z,3.45
2018-11-11T11:56:29.323Z,3.40
2018-11-11T11:58:58.447Z,4.67
2018-11-11T12:01:28.477Z,4.00
2018-11-11T12:03:57.719Z,6.28
2018-11-11T12:06:27.904Z,6.58
2018-11-11T12:08:57.015Z,7.33
2018-11-11T12:11:26.048Z,7.78
2018-11-11T12:13:56.170Z,6.90
2018-11-11T12:16:25.731Z,6.80
2018-11-11T12:18:55.719Z,6.33
2018-11-11T12:21:24.937Z,6.22
2018-11-11T12:23:54.055Z,5.72
2018-11-11T12:26:24.116Z,5.75
2018-11-11T12:28:53.455Z,4.55
2018-11-11T12:31:25.465Z,4.67
2018-11-11T12:33:55.592Z,3.70
2018-11-11T12:36:25.166Z,4.45
2018-11-11T12:38:54.292Z,4.10
2018-11-11T12:41:24.442Z,5.40
2018-11-11T12:43:53.535Z,4.10
2018-11-11T12:46:23.250Z,4.12
2018-11-11T12:48:52.337Z,4.05
2018-11-11T12:51:21.953Z,3.70
2018-11-11T12:53:58.408Z,4.28
2018-11-11T12:56:27.446Z,4.15
2018-11-11T12:58:57.093Z,4.22
2018-11-11T13:01:26.864Z,3.47
2018-11-11T13:03:55.955Z,3.10
2018-11-11T13:06:25.876Z,3.55
2018-11-11T13:08:54.952Z,3.08
2018-11-11T13:11:24.929Z,3.62
2018-11-11T13:13:54.615Z,3.12
2018-11-11T13:16:23.741Z,3.65
2018-11-11T13:18:53.122Z,3.08
2018-11-11T13:21:22.774Z,3.80
2018-11-11T13:23:51.907Z,3.30
2018-11-11T13:26:21.703Z,3.98
2018-11-11T13:28:51.306Z,2.85
2018-11-11T13:31:21.021Z,3.47
2018-11-11T13:33:51.034Z,3.33
2018-11-11T13:36:20.202Z,3.08
2018-11-11T13:38:49.961Z,3.37
2018-11-11T13:41:20.707Z,3.22
2018-11-11T13:43:49.923Z,3.83
2018-11-11T13:46:19.754Z,3.65
2018-11-11T13:48:50.488Z,3.10
2018-11-11T13:51:20.761Z,3.55
2018-11-11T13:53:51.253Z,3.17
2018-11-11T13:56:21.179Z,3.45
2018-11-11T13:58:50.408Z,3.12
2018-11-11T14:01:19.603Z,3.67
2018-11-11T14:03:48.713Z,3.25
2018-11-11T14:06:19.156Z,3.87
2018-11-11T14:08:49.330Z,3.85
2018-11-11T14:11:19.176Z,3.47
2018-11-11T14:13:48.524Z,3.42
2018-11-11T14:16:18.416Z,3.20
2018-11-11T14:18:48.819Z,3.02
2018-11-11T14:21:19.326Z,3.17
2018-11-11T14:23:48.740Z,3.47
2018-11-11T14:26:18.828Z,3.33
2018-11-11T14:28:47.945Z,2.95
2018-11-11T14:31:17.725Z,2.98
2018-11-11T14:33:47.755Z,2.55
2018-11-11T14:36:16.883Z,3.25
2018-11-11T14:38:45.975Z,3.02
2018-11-11T14:41:16.691Z,2.70
2018-11-11T14:43:46.589Z,2.75
2018-11-11T14:46:16.618Z,2.98
2018-11-11T14:48:45.837Z,2.55
2018-11-11T14:51:16.083Z,2.35
2018-11-11T14:53:45.642Z,3.08
2018-11-11T14:56:15.754Z,3.52
2018-11-11T14:58:44.990Z,2.47
2018-11-11T15:01:15.014Z,2.85
2018-11-11T15:03:44.122Z,2.37
2018-11-11T15:06:14.033Z,2.70
2018-11-11T15:08:44.408Z,2.33
2018-11-11T15:11:13.802Z,2.02
2018-11-11T15:13:43.206Z,2.58
2018-11-11T15:16:12.321Z,2.70
2018-11-11T15:18:42.226Z,2.87
2018-11-11T15:21:12.673Z,2.45
2018-11-11T15:23:42.438Z,2.30
2018-11-11T15:26:12.300Z,3.05
2018-11-11T15:28:42.278Z,3.25
2018-11-11T15:31:12.030Z,2.35
2018-11-11T15:33:42.260Z,3.08
2018-11-11T15:36:12.113Z,3.42
2018-11-11T15:38:41.314Z,3.05
2018-11-11T15:41:10.647Z,3.10
2018-11-11T15:43:40.340Z,3.00
2018-11-11T15:46:09.546Z,2.80
2018-11-11T15:48:38.755Z,2.92
2018-11-11T15:51:08.828Z,3.95
2018-11-11T15:53:39.506Z,4.08
2018-11-11T15:56:09.206Z,4.35
2018-11-11T15:58:39.642Z,4.70
2018-11-11T16:01:08.848Z,4.37
2018-11-11T16:03:38.750Z,2.90
2018-11-11T16:06:09.004Z,2.40
2018-11-11T16:08:38.983Z,3.40
2018-11-11T16:11:10.321Z,2.50
2018-11-11T16:13:39.489Z,3.60
2018-11-11T16:16:08.866Z,2.62
2018-11-11T16:18:38.402Z,3.17
2018-11-11T16:21:08.559Z,2.95
2018-11-11T16:23:38.494Z,2.90
2018-11-11T16:26:08.259Z,2.60
2018-11-11T16:28:37.869Z,3.15
2018-11-11T16:31:08.317Z,2.98
2018-11-11T16:33:38.665Z,2.62
2018-11-11T16:36:07.994Z,3.40
2018-11-11T16:38:37.203Z,3.40
2018-11-11T16:41:07.593Z,3.05
2018-11-11T16:43:37.292Z,3.12
2018-11-11T16:46:06.659Z,3.08
2018-11-11T16:48:36.837Z,3.02
2018-11-11T16:51:06.838Z,2.85
2018-11-11T16:53:36.890Z,2.72
2018-11-11T16:56:07.359Z,2.52
2018-11-11T16:58:37.002Z,2.40
2018-11-11T17:01:06.093Z,2.90
2018-11-11T17:03:36.502Z,2.60
2018-11-11T17:06:06.790Z,2.75
2018-11-11T17:08:36.605Z,2.98
2018-11-11T17:11:06.102Z,2.65
2018-11-11T17:13:36.053Z,2.27
2018-11-11T17:16:05.486Z,2.52
2018-11-11T17:18:34.701Z,2.75
2018-11-11T17:21:04.672Z,2.67
2018-11-11T17:23:33.685Z,1.95
2018-11-11T17:26:04.899Z,2.42
2018-11-11T17:28:34.179Z,2.37
2018-11-11T17:31:04.005Z,2.10
2018-11-11T17:33:33.816Z,2.75
2018-11-11T17:36:03.550Z,2.47
2018-11-11T17:38:32.962Z,2.17
2018-11-11T17:41:02.166Z,2.22
2018-11-11T17:43:31.662Z,1.85
2018-11-11T17:46:01.638Z,2.05
2018-11-11T17:48:34.471Z,2.05
2018-11-11T17:51:03.833Z,1.98
2018-11-11T17:53:33.554Z,2.22
2018-11-11T17:56:04.054Z,2.35
2018-11-11T17:58:33.485Z,2.12
2018-11-11T18:01:02.926Z,1.75
2018-11-11T18:03:32.572Z,2.37
2018-11-11T18:06:02.017Z,2.17
2018-11-11T18:08:35.090Z,1.90
2018-11-11T18:11:05.470Z,2.22
2018-11-11T18:13:34.859Z,2.58
2018-11-11T18:16:04.134Z,1.80
2018-11-11T18:18:33.288Z,2.35
2018-11-11T18:21:03.382Z,2.37
2018-11-11T18:23:34.638Z,1.87
2018-11-11T18:26:05.243Z,2.20
2018-11-11T18:28:35.053Z,1.82
2018-11-11T18:31:04.831Z,1.95
2018-11-11T18:33:34.199Z,2.00
2018-11-11T18:36:04.961Z,1.82
2018-11-11T18:38:34.462Z,2.20
2018-11-11T18:41:04.346Z,1.85
2018-11-11T18:43:33.553Z,1.85
2018-11-11T18:46:03.663Z,1.85
2018-11-11T18:48:32.886Z,2.10
2018-11-11T18:51:02.062Z,2.10
2018-11-11T18:53:31.496Z,1.90
2018-11-11T18:56:01.649Z,2.87
2018-11-11T18:58:30.657Z,4.20
2018-11-11T19:01:00.553Z,4.97
2018-11-11T19:03:29.862Z,4.90
2018-11-11T19:05:58.958Z,4.08
2018-11-11T19:08:29.045Z,4.72
2018-11-11T19:10:58.330Z,5.70
2018-11-11T19:13:27.439Z,6.03
2018-11-11T19:15:57.131Z,7.70
2018-11-11T19:18:27.733Z,6.12
2018-11-11T19:20:58.418Z,6.65
2018-11-11T19:23:27.627Z,5.95
2018-11-11T19:25:57.416Z,6.60
2018-11-11T19:28:26.662Z,5.78
2018-11-11T19:30:56.787Z,6.03
2018-11-11T19:33:26.674Z,5.22
2018-11-11T19:35:56.322Z,5.30
2018-11-11T19:38:26.490Z,5.67
2018-11-11T19:40:55.927Z,4.87
2018-11-11T19:43:25.982Z,5.58
2018-11-11T19:45:56.384Z,4.95
2018-11-11T19:48:25.701Z,5.25
2018-11-11T19:50:55.668Z,5.72
2018-11-11T19:53:25.292Z,5.10
2018-11-11T19:55:55.126Z,4.40
2018-11-11T19:58:24.779Z,4.70
2018-11-11T20:00:54.006Z,5.30
2018-11-11T20:03:23.456Z,5.40
2018-11-11T20:05:52.978Z,5.35
2018-11-11T20:08:23.279Z,5.60
2018-11-11T20:10:53.051Z,4.65
2018-11-11T20:13:23.232Z,4.65
2018-11-11T20:15:53.232Z,4.90
2018-11-11T20:18:23.362Z,5.00
2018-11-11T20:20:53.211Z,4.42
2018-11-11T20:23:22.492Z,4.17
2018-11-11T20:25:52.458Z,4.25
2018-11-11T20:28:22.298Z,5.03
2018-11-11T20:30:52.247Z,4.72
2018-11-11T20:33:21.987Z,4.08
2018-11-11T20:35:51.223Z,3.90
2018-11-11T20:38:21.800Z,4.20
2018-11-11T20:40:52.163Z,4.28
2018-11-11T20:43:22.478Z,4.30
2018-11-11T20:45:52.383Z,4.62
2018-11-11T20:48:21.719Z,4.30
2018-11-11T20:50:51.442Z,4.33
2018-11-11T20:53:21.991Z,3.80
2018-11-11T20:55:52.507Z,4.00
2018-11-11T20:58:21.874Z,4.17
2018-11-11T21:00:51.076Z,4.35
2018-11-11T21:03:20.257Z,4.85
2018-11-11T21:05:50.050Z,5.60
2018-11-11T21:08:20.655Z,3.95
2018-11-11T21:10:50.403Z,4.95
2018-11-11T21:13:19.534Z,4.28
2018-11-11T21:15:49.243Z,5.12
2018-11-11T21:18:19.316Z,5.60
2018-11-11T21:20:48.572Z,4.03
2018-11-11T21:23:17.843Z,5.17
2018-11-11T21:25:47.669Z,4.97
2018-11-11T21:28:16.842Z,6.22
2018-11-11T21:30:47.617Z,5.50
2018-11-11T21:33:17.542Z,5.83
2018-11-11T21:35:46.774Z,5.45
2018-11-11T21:38:16.720Z,5.67
2018-11-11T21:40:46.354Z,5.10
2018-11-11T21:43:16.357Z,5.47
2018-11-11T21:45:46.232Z,6.35
2018-11-11T21:48:16.494Z,5.53
2018-11-11T21:50:45.709Z,4.92
2018-11-11T21:53:32.005Z,4.28
2018-11-11T21:56:02.442Z,4.45
2018-11-11T21:58:31.591Z,3.77
2018-11-11T22:01:00.740Z,4.05
2018-11-11T22:03:30.021Z,4.12
2018-11-11T22:06:02.127Z,3.30
2018-11-11T22:08:33.158Z,4.80
2018-11-11T22:11:02.468Z,3.80
2018-11-11T22:13:32.486Z,3.95
2018-11-11T22:16:02.304Z,3.62
2018-11-11T22:18:32.067Z,3.60
2018-11-11T22:21:02.412Z,3.55
2018-11-11T22:23:32.200Z,3.72
2018-11-11T22:26:07.178Z,3.60
2018-11-11T22:28:36.446Z,3.17
2018-11-11T22:31:06.480Z,3.92
2018-11-11T22:33:37.506Z,3.25
2018-11-11T22:36:07.116Z,3.00
2018-11-11T22:38:36.948Z,3.77
2018-11-11T22:41:06.098Z,3.40
2018-11-11T22:43:35.986Z,3.27
2018-11-11T22:46:06.211Z,3.12
2018-11-11T22:48:36.225Z,3.17
2018-11-11T22:51:06.791Z,3.17
2018-11-11T22:53:36.034Z,3.50
2018-11-11T22:56:05.840Z,3.22
2018-11-11T22:58:35.221Z,3.22
2018-11-11T23:01:10.229Z,3.33
2018-11-11T23:03:41.428Z,3.33
2018-11-11T23:06:13.605Z,2.90
2018-11-11T23:08:43.315Z,2.65
2018-11-11T23:11:15.965Z,2.72
2018-11-11T23:13:46.261Z,2.80
2018-11-11T23:16:16.889Z,2.80
2018-11-11T23:18:46.651Z,2.62
2018-11-11T23:21:16.024Z,2.77
2018-11-11T23:23:46.351Z,3.30
2018-11-11T23:26:16.054Z,2.80
2018-11-11T23:28:46.518Z,3.15
2018-11-11T23:31:16.702Z,2.62
2018-11-11T23:33:46.332Z,3.00
2018-11-11T23:36:15.983Z,3.20
2018-11-11T23:38:45.234Z,2.27
2018-11-11T23:41:16.100Z,2.45
2018-11-11T23:43:45.780Z,2.80
2018-11-11T23:46:15.892Z,3.05
2018-11-11T23:48:46.518Z,2.67
2018-11-11T23:51:16.170Z,3.00
2018-11-11T23:53:45.506Z,2.40
2018-11-11T23:56:15.679Z,2.85
2018-11-11T23:58:44.890Z,2.33
